Timberlake, NC

6:23 AM EST on February 13, 2016 (GMT -0500)
Person County | | Change Station
CLOSE
Current Station
Airport
Location: Roxboro,
Elevation: 610 ft
Nearby Weather Stations

Elev 610 ft 36.28 °N, 78.98 °W | Updated 8 minutes ago

Mostly Cloudy
Mostly Cloudy
28 °F
Feels Like 19 °F
N
10
Wind Variable Wind from NW
Gusts 21 mph

Today
High -- | Low -- °F
--% Chance of Precip.
Yesterday
High -- | Low -- °F
Precip. -- in
Pressure 30.19 in
Visibility 10.0 miles
Clouds Scattered Clouds 5000 ft
Mostly Cloudy 6000 ft
Windchill 19 °F
Dew Point 10 °F
Humidity 47%
Rainfall 0.00 in
Snow Depth Not available.
7:06 AM 5:54 PM
Waxing Crescent, 29% visible
METAR KTDF 131115Z AUTO 32009G18KT 280V340 10SM SCT050 BKN060 M02/M12 A3019 RMK AO2
Pressure 30.19 in
Visibility 10.0 miles
Clouds Scattered Clouds 5000 ft
Mostly Cloudy 6000 ft
Windchill 19 °F
Dew Point 10 °F
Humidity 47%
Rainfall 0.00 in
Snow Depth Not available.
7:06 AM 5:54 PM
Waxing Crescent, 29% visible
METAR KTDF 131115Z AUTO 32009G18KT 280V340 10SM SCT050 BKN060 M02/M12 A3019 RMK AO2

10-Day Weather Forecast

Almanac

Astronomy

Feb. 13, 2016 Rise Set
Actual Time
Civil Twilight
Nautical Twilight
Astronomical Twilight
Moon
Length of Visible Light
Length of Day
Tomorrow will be .
, % of the Moon is Illuminated

Today's Extremes

State Highs State Lows

Community

WunderPhotos

Upload Photos

1,892,541 photos uploaded!

WunderBlog® & News

Nearby

Air Quality

  Air Quality AQ Index Pollutant
Not available.

Snow Depth

Station Depth Elevation

Earthquake Activity

City Distance Mag. Time & Date
Minimum magnitude displayed is 2.5.

Coastal Water Temperatures

Place Temperature

Stations

Nearby Weather Stations

Station Location Temp. Windchill Dew Point Humidity Wind Precip. Elev Updated Type
                   

Watches & Warnings

There are currently no watches in effect.